createdAt,value
2023-03-06T00:00:49.483Z,1.12
2023-03-06T00:03:16.561Z,1.04
2023-03-06T00:05:43.236Z,1.02
2023-03-06T00:08:10.034Z,0.96
2023-03-06T00:10:36.703Z,0.93
2023-03-06T00:13:05.661Z,0.85
2023-03-06T00:15:32.525Z,0.82
2023-03-06T00:17:59.188Z,0.77
2023-03-06T00:20:26.612Z,0.74
2023-03-06T00:22:53.199Z,0.68
2023-03-06T00:25:21.247Z,0.68
2023-03-06T00:27:48.080Z,0.63
2023-03-06T00:30:17.463Z,0.57
2023-03-06T00:32:44.877Z,0.53
2023-03-06T00:35:11.841Z,0.49
2023-03-06T00:37:38.619Z,0.46
2023-03-06T00:40:06.651Z,0.41
2023-03-06T00:42:33.359Z,0.45
2023-03-06T00:44:59.951Z,0.41
2023-03-06T00:47:26.442Z,0.44
2023-03-06T00:49:52.990Z,0.43
2023-03-06T00:52:19.491Z,0.46
2023-03-06T00:54:46.001Z,0.48
2023-03-06T00:57:12.901Z,0.52
2023-03-06T00:59:39.415Z,0.55
2023-03-06T01:02:06.026Z,0.61
2023-03-06T01:04:32.792Z,0.67
2023-03-06T01:06:59.510Z,0.73
2023-03-06T01:09:26.086Z,0.81
2023-03-06T01:11:52.622Z,0.88
2023-03-06T01:14:19.468Z,0.94
2023-03-06T01:16:46.911Z,1.01
2023-03-06T01:19:13.602Z,1.03
2023-03-06T01:21:40.100Z,1.07
2023-03-06T01:24:07.120Z,1.09
2023-03-06T01:26:34.605Z,1.13
2023-03-06T01:29:01.747Z,1.13
2023-03-06T01:31:28.296Z,1.09
2023-03-06T01:33:54.964Z,1.09
2023-03-06T01:36:21.678Z,1.04
2023-03-06T01:38:48.220Z,0.99
2023-03-06T01:41:15.901Z,0.93
2023-03-06T01:43:44.841Z,0.86
2023-03-06T01:46:30.335Z,0.80
2023-03-06T01:49:18.388Z,0.73
2023-03-06T01:52:03.438Z,0.65
2023-03-06T01:54:34.587Z,0.59
2023-03-06T01:57:05.526Z,0.54
2023-03-06T01:59:33.948Z,0.50
2023-03-06T02:02:01.944Z,0.49
2023-03-06T02:04:29.332Z,0.50
2023-03-06T02:06:56.201Z,0.54
2023-03-06T02:09:22.817Z,0.51
2023-03-06T02:11:49.386Z,0.46
2023-03-06T02:14:17.146Z,0.42
2023-03-06T02:16:44.156Z,0.38
2023-03-06T02:19:33.324Z,0.37
2023-03-06T02:22:00.027Z,0.34
2023-03-06T02:24:39.146Z,0.24
2023-03-06T02:27:07.505Z,0.21
2023-03-06T02:29:34.291Z,0.20
2023-03-06T02:32:00.828Z,0.19
2023-03-06T02:34:27.279Z,0.23
2023-03-06T02:37:00.982Z,0.21
2023-03-06T02:39:30.206Z,0.11
2023-03-06T02:41:56.772Z,0.09
2023-03-06T02:44:23.985Z,0.08
2023-03-06T02:46:50.509Z,0.10
2023-03-06T02:49:16.989Z,0.12
2023-03-06T02:51:43.568Z,0.12
2023-03-06T02:54:10.986Z,0.12
2023-03-06T02:56:37.542Z,0.09
2023-03-06T02:59:04.083Z,0.10
2023-03-06T03:01:30.834Z,0.06
2023-03-06T03:03:57.418Z,0.06
2023-03-06T03:06:24.016Z,0.05
2023-03-06T03:08:50.492Z,0.14
2023-03-06T03:11:16.999Z,0.21
2023-03-06T03:13:43.573Z,0.21
2023-03-06T03:16:14.156Z,0.27
2023-03-06T03:18:41.460Z,0.32
2023-03-06T03:21:12.643Z,0.37
2023-03-06T03:23:39.317Z,0.48
2023-03-06T03:26:08.260Z,0.56
2023-03-06T03:28:34.979Z,0.65
2023-03-06T03:31:06.475Z,0.73
2023-03-06T03:33:33.712Z,0.83
2023-03-06T03:36:01.946Z,0.89
2023-03-06T03:38:29.026Z,1.00
2023-03-06T03:40:55.565Z,1.13
2023-03-06T03:43:22.063Z,1.24
2023-03-06T03:45:48.611Z,1.33
2023-03-06T03:48:15.162Z,1.41
2023-03-06T03:50:42.243Z,1.44
2023-03-06T03:53:08.775Z,1.49
2023-03-06T03:55:35.347Z,1.54
2023-03-06T03:58:01.962Z,1.61
2023-03-06T04:00:28.824Z,1.69
2023-03-06T04:02:55.410Z,1.76
2023-03-06T04:05:21.972Z,1.83
2023-03-06T04:07:48.493Z,1.83
2023-03-06T04:10:15.397Z,1.83
2023-03-06T04:12:42.160Z,1.89
2023-03-06T04:15:08.994Z,1.96
2023-03-06T04:17:35.648Z,1.96
2023-03-06T04:20:04.148Z,2.00
2023-03-06T04:22:31.098Z,2.03
2023-03-06T04:24:57.636Z,2.07
2023-03-06T04:27:24.340Z,2.15
2023-03-06T04:29:50.880Z,2.18
2023-03-06T04:32:18.725Z,2.18
2023-03-06T04:34:46.850Z,2.20
2023-03-06T04:37:24.468Z,2.19
2023-03-06T04:39:51.496Z,2.16
2023-03-06T04:42:18.650Z,2.20
2023-03-06T04:44:45.486Z,2.16
2023-03-06T04:47:12.765Z,2.13
2023-03-06T04:49:39.540Z,2.12
2023-03-06T04:52:06.401Z,2.12
2023-03-06T04:54:32.986Z,2.10
2023-03-06T04:56:59.547Z,2.10
2023-03-06T04:59:26.179Z,2.13
2023-03-06T05:01:52.880Z,2.13
2023-03-06T05:04:19.544Z,2.13
2023-03-06T05:06:46.362Z,2.15
2023-03-06T05:09:12.932Z,2.17
2023-03-06T05:11:39.633Z,2.13
2023-03-06T05:14:06.430Z,2.14
2023-03-06T05:16:33.086Z,2.17
2023-03-06T05:18:59.613Z,2.18
2023-03-06T05:21:26.104Z,2.15
2023-03-06T05:23:53.046Z,2.20
2023-03-06T05:26:19.688Z,2.19
2023-03-06T05:28:46.177Z,2.21
2023-03-06T05:31:12.745Z,2.23
2023-03-06T05:33:39.338Z,2.21
2023-03-06T05:36:08.330Z,2.22
2023-03-06T05:38:35.379Z,2.22
2023-03-06T05:41:01.906Z,2.24
2023-03-06T05:43:28.394Z,2.29
2023-03-06T05:46:03.019Z,2.31
2023-03-06T05:48:29.978Z,2.34
2023-03-06T05:51:00.678Z,2.36
2023-03-06T05:53:29.369Z,2.36
2023-03-06T05:56:01.089Z,2.40
2023-03-06T05:58:28.202Z,2.41
2023-03-06T06:00:54.762Z,2.40
2023-03-06T06:03:21.439Z,2.39
2023-03-06T06:05:48.193Z,2.35
2023-03-06T06:08:14.844Z,2.27
2023-03-06T06:10:41.402Z,2.28
2023-03-06T06:13:08.021Z,2.26
2023-03-06T06:15:34.720Z,2.30
2023-03-06T06:18:01.251Z,2.31
2023-03-06T06:20:28.488Z,2.32
2023-03-06T06:22:54.976Z,2.35
2023-03-06T06:25:21.505Z,2.35
2023-03-06T06:27:48.352Z,2.39
2023-03-06T06:30:14.960Z,2.40
2023-03-06T06:32:41.631Z,2.45
2023-03-06T06:35:08.497Z,2.50
2023-03-06T06:37:35.445Z,2.54
2023-03-06T06:40:02.001Z,2.64
2023-03-06T06:42:35.794Z,2.59
2023-03-06T06:45:06.080Z,2.55
2023-03-06T06:47:34.318Z,2.55
2023-03-06T06:50:00.935Z,2.57
2023-03-06T06:52:27.515Z,2.56
2023-03-06T06:54:54.203Z,2.57
2023-03-06T06:57:21.042Z,2.58
2023-03-06T06:59:47.590Z,2.59
2023-03-06T07:02:15.916Z,2.61
2023-03-06T07:05:00.351Z,2.61
2023-03-06T07:07:29.662Z,2.62
2023-03-06T07:09:56.174Z,2.63
2023-03-06T07:12:22.717Z,2.65
2023-03-06T07:14:49.213Z,2.67
2023-03-06T07:17:15.756Z,2.73
2023-03-06T07:19:42.343Z,2.74
2023-03-06T07:22:08.903Z,2.81
2023-03-06T07:24:35.423Z,2.88
2023-03-06T07:27:01.962Z,2.96
2023-03-06T07:29:28.575Z,3.03
2023-03-06T07:31:55.358Z,3.15
2023-03-06T07:34:22.505Z,3.14
2023-03-06T07:36:51.077Z,3.18
2023-03-06T07:39:17.602Z,3.18
2023-03-06T07:41:44.167Z,3.19
2023-03-06T07:44:10.717Z,3.25
2023-03-06T07:46:37.346Z,3.44
2023-03-06T07:49:04.042Z,3.58
2023-03-06T07:51:30.571Z,3.67
2023-03-06T07:53:57.133Z,3.77
2023-03-06T07:56:23.726Z,3.92
2023-03-06T07:58:50.403Z,3.92
2023-03-06T08:01:19.856Z,3.93
2023-03-06T08:03:47.162Z,4.07
2023-03-06T08:06:15.966Z,4.27
2023-03-06T08:08:44.363Z,4.53
2023-03-06T08:11:12.947Z,4.66
2023-03-06T08:13:39.720Z,4.52
2023-03-06T08:16:07.271Z,4.43
2023-03-06T08:18:34.428Z,4.45
2023-03-06T08:21:12.569Z,3.97
2023-03-06T08:23:39.564Z,3.36
2023-03-06T08:26:09.128Z,2.86
2023-03-06T08:28:35.632Z,2.63
2023-03-06T08:31:10.586Z,2.49
2023-03-06T08:33:37.654Z,2.41
2023-03-06T08:36:04.536Z,2.40
2023-03-06T08:38:31.217Z,2.38
2023-03-06T08:40:58.171Z,2.39
2023-03-06T08:43:24.748Z,2.40
2023-03-06T08:45:55.319Z,2.41
2023-03-06T08:48:22.120Z,2.53
2023-03-06T08:50:49.172Z,2.65
2023-03-06T08:53:15.663Z,2.68
2023-03-06T08:55:42.199Z,2.71
2023-03-06T08:58:09.119Z,2.89
2023-03-06T09:00:35.734Z,2.98
2023-03-06T09:03:02.282Z,3.13
2023-03-06T09:05:28.961Z,3.28
2023-03-06T09:07:55.537Z,3.47
2023-03-06T09:10:24.197Z,3.50
2023-03-06T09:12:53.738Z,3.63
2023-03-06T09:15:22.072Z,3.63
2023-03-06T09:17:48.758Z,3.69
2023-03-06T09:20:15.434Z,3.76
2023-03-06T09:22:45.635Z,3.87
2023-03-06T09:25:20.348Z,4.00
2023-03-06T09:27:55.480Z,4.02
2023-03-06T09:30:28.717Z,4.12
2023-03-06T09:32:55.277Z,4.46
2023-03-06T09:35:21.833Z,4.80
2023-03-06T09:37:48.391Z,5.17
2023-03-06T09:40:19.696Z,5.32
2023-03-06T09:42:46.254Z,5.51
2023-03-06T09:45:13.468Z,5.40
2023-03-06T09:47:53.554Z,5.32
2023-03-06T09:50:44.822Z,5.42
2023-03-06T09:53:26.475Z,5.45
2023-03-06T09:56:06.370Z,5.13
2023-03-06T09:58:40.028Z,4.94
2023-03-06T10:01:17.888Z,4.74
2023-03-06T10:03:59.677Z,4.86
2023-03-06T10:06:32.481Z,4.87
2023-03-06T10:09:05.747Z,4.91
2023-03-06T10:11:48.392Z,5.14
2023-03-06T10:14:48.934Z,5.20
2023-03-06T10:17:22.491Z,5.22
2023-03-06T10:19:49.406Z,5.38
2023-03-06T10:22:33.103Z,5.70
2023-03-06T10:25:14.881Z,6.09
2023-03-06T10:27:50.485Z,6.23
2023-03-06T10:30:43.294Z,6.30
2023-03-06T10:33:36.673Z,6.14
2023-03-06T10:36:04.580Z,6.12
2023-03-06T10:38:31.209Z,5.92
2023-03-06T10:41:07.146Z,5.85
2023-03-06T10:43:36.384Z,6.09
2023-03-06T10:46:03.496Z,6.25
2023-03-06T10:48:30.948Z,6.01
2023-03-06T10:51:19.400Z,6.18
2023-03-06T10:53:50.120Z,6.39
2023-03-06T10:56:31.698Z,6.95
2023-03-06T10:59:26.523Z,7.37
2023-03-06T11:01:55.415Z,7.22
2023-03-06T11:04:27.939Z,7.20
2023-03-06T11:07:14.794Z,6.86
2023-03-06T11:09:56.551Z,6.36
2023-03-06T11:12:23.198Z,6.48
2023-03-06T11:15:08.322Z,6.41
2023-03-06T11:17:52.973Z,6.40
2023-03-06T11:20:27.198Z,6.43
2023-03-06T11:23:31.227Z,6.42
2023-03-06T11:26:01.267Z,6.55
2023-03-06T11:28:34.914Z,6.47
2023-03-06T11:31:09.472Z,6.51
2023-03-06T11:33:54.154Z,6.39
2023-03-06T11:36:56.464Z,6.48
2023-03-06T11:39:37.946Z,6.08
2023-03-06T11:42:27.000Z,6.24
2023-03-06T11:45:03.142Z,6.26
2023-03-06T11:47:35.336Z,6.39
2023-03-06T11:50:36.087Z,6.42
2023-03-06T11:53:04.048Z,6.90
2023-03-06T11:55:42.457Z,6.86
2023-03-06T11:58:21.274Z,6.58
2023-03-06T12:00:53.185Z,6.58
2023-03-06T12:03:19.666Z,6.98
2023-03-06T12:06:06.093Z,6.85
2023-03-06T12:08:54.104Z,7.07
2023-03-06T12:11:23.936Z,7.06
2023-03-06T12:14:02.141Z,7.21
2023-03-06T12:16:58.659Z,7.33
2023-03-06T12:19:57.552Z,7.17
2023-03-06T12:22:36.630Z,7.05
2023-03-06T12:25:06.052Z,7.29
2023-03-06T12:27:58.966Z,7.39
2023-03-06T12:30:46.896Z,7.11
2023-03-06T12:33:24.586Z,7.02
2023-03-06T12:35:51.298Z,6.91
2023-03-06T12:39:00.231Z,6.56
2023-03-06T12:41:45.551Z,6.77
2023-03-06T12:44:21.764Z,6.90
2023-03-06T12:46:58.343Z,6.67
2023-03-06T12:49:32.700Z,6.58
2023-03-06T12:52:01.181Z,6.38
2023-03-06T12:54:29.862Z,6.47
2023-03-06T12:56:57.561Z,6.56
2023-03-06T12:59:44.062Z,6.51
2023-03-06T13:02:21.522Z,6.44
2023-03-06T13:05:13.063Z,6.46
2023-03-06T13:07:52.682Z,6.53
2023-03-06T13:10:28.272Z,6.71
2023-03-06T13:12:57.708Z,6.94
2023-03-06T13:15:44.026Z,6.53
2023-03-06T13:18:22.575Z,6.59
2023-03-06T13:20:50.787Z,6.55
2023-03-06T13:23:29.318Z,6.36
2023-03-06T13:25:57.438Z,6.49
2023-03-06T13:28:46.143Z,6.36
2023-03-06T13:31:26.348Z,6.36
2023-03-06T13:33:56.590Z,6.39
2023-03-06T13:36:30.847Z,6.21
2023-03-06T13:39:02.389Z,6.10
2023-03-06T13:41:31.700Z,5.83
2023-03-06T13:44:03.011Z,5.94
2023-03-06T13:46:35.600Z,6.03
2023-03-06T13:49:07.955Z,5.87
2023-03-06T13:51:37.469Z,5.69
2023-03-06T13:54:12.207Z,5.77
2023-03-06T13:57:03.532Z,5.79
2023-03-06T13:59:50.516Z,5.94
2023-03-06T14:02:48.836Z,5.87
2023-03-06T14:05:17.095Z,5.72
2023-03-06T14:07:46.058Z,5.54
2023-03-06T14:10:23.263Z,5.51
2023-03-06T14:12:49.748Z,5.43
2023-03-06T14:15:46.169Z,5.43
2023-03-06T14:18:12.622Z,5.66
2023-03-06T14:20:39.174Z,5.69
2023-03-06T14:23:28.510Z,5.59
2023-03-06T14:26:33.472Z,5.62
2023-03-06T14:29:01.755Z,5.60
2023-03-06T14:31:28.298Z,5.53
2023-03-06T14:34:01.916Z,5.49
2023-03-06T14:36:50.786Z,5.21
2023-03-06T14:39:24.920Z,5.24
2023-03-06T14:41:51.500Z,5.20
2023-03-06T14:44:23.529Z,5.09
2023-03-06T14:46:57.841Z,4.88
2023-03-06T14:49:25.916Z,4.87
2023-03-06T14:51:57.014Z,4.92
2023-03-06T14:54:29.495Z,5.06
2023-03-06T14:57:01.272Z,5.06
2023-03-06T14:59:29.774Z,4.93
2023-03-06T15:01:59.428Z,4.96
2023-03-06T15:04:36.818Z,4.83
2023-03-06T15:07:07.206Z,5.00
2023-03-06T15:09:36.207Z,5.01
2023-03-06T15:12:05.355Z,5.03
2023-03-06T15:14:36.376Z,5.01
2023-03-06T15:17:21.914Z,4.74
2023-03-06T15:19:50.364Z,4.69
2023-03-06T15:22:41.379Z,4.53
2023-03-06T15:25:17.046Z,4.31
2023-03-06T15:27:49.788Z,4.20
2023-03-06T15:30:28.960Z,4.22
2023-03-06T15:33:18.271Z,4.31
2023-03-06T15:36:02.002Z,4.40
2023-03-06T15:38:44.683Z,4.41
2023-03-06T15:41:34.059Z,4.39
2023-03-06T15:44:02.768Z,4.36
2023-03-06T15:46:29.382Z,4.31
2023-03-06T15:49:07.394Z,4.27
2023-03-06T15:51:33.913Z,4.20
2023-03-06T15:54:11.181Z,4.24
2023-03-06T15:56:43.354Z,4.16
2023-03-06T15:59:32.935Z,3.99
2023-03-06T16:02:07.398Z,3.89
2023-03-06T16:04:33.979Z,3.78
2023-03-06T16:07:00.517Z,3.68
2023-03-06T16:09:27.053Z,3.43
2023-03-06T16:11:54.023Z,3.37
2023-03-06T16:14:23.638Z,3.31
2023-03-06T16:16:52.354Z,3.17
2023-03-06T16:19:27.959Z,3.03
2023-03-06T16:21:55.584Z,2.99
2023-03-06T16:24:22.269Z,2.88
2023-03-06T16:26:50.943Z,2.84
2023-03-06T16:29:24.558Z,2.80
2023-03-06T16:31:51.369Z,2.73
2023-03-06T16:34:19.880Z,2.72
2023-03-06T16:36:48.505Z,2.69
2023-03-06T16:39:19.966Z,2.69
2023-03-06T16:41:47.156Z,2.70
2023-03-06T16:44:13.752Z,2.69
2023-03-06T16:46:42.732Z,2.69
2023-03-06T16:49:15.832Z,2.70
2023-03-06T16:51:42.359Z,2.68
2023-03-06T16:54:08.864Z,2.69
2023-03-06T16:56:35.444Z,2.68
2023-03-06T16:59:01.977Z,2.67
2023-03-06T17:01:28.583Z,2.63
2023-03-06T17:03:55.277Z,2.62
2023-03-06T17:06:22.728Z,2.61
2023-03-06T17:08:50.272Z,2.61
2023-03-06T17:11:17.840Z,2.62
2023-03-06T17:13:44.385Z,2.64
2023-03-06T17:16:16.079Z,2.62
2023-03-06T17:18:43.975Z,2.63
2023-03-06T17:21:10.909Z,2.63
2023-03-06T17:23:37.627Z,2.66
2023-03-06T17:26:07.824Z,2.64
2023-03-06T17:28:35.772Z,2.62
2023-03-06T17:31:03.458Z,2.60
2023-03-06T17:33:30.157Z,2.55
2023-03-06T17:36:00.922Z,2.57
2023-03-06T17:38:28.041Z,2.54
2023-03-06T17:40:54.727Z,2.56
2023-03-06T17:43:21.972Z,2.54
2023-03-06T17:45:48.515Z,2.54
2023-03-06T17:48:15.056Z,2.54
2023-03-06T17:50:41.659Z,2.54
2023-03-06T17:53:08.221Z,2.58
2023-03-06T17:55:34.749Z,2.61
2023-03-06T17:58:01.295Z,2.59
2023-03-06T18:00:27.826Z,2.61
2023-03-06T18:02:54.344Z,2.62
2023-03-06T18:05:21.872Z,2.64
2023-03-06T18:07:48.690Z,2.64
2023-03-06T18:10:15.399Z,2.65
2023-03-06T18:12:41.997Z,2.70
2023-03-06T18:15:09.099Z,2.70
2023-03-06T18:17:35.731Z,2.68
2023-03-06T18:20:02.254Z,2.70
2023-03-06T18:22:28.912Z,2.76
2023-03-06T18:24:55.483Z,2.78
2023-03-06T18:27:22.077Z,2.79
2023-03-06T18:29:48.631Z,2.88
2023-03-06T18:32:15.196Z,2.93
2023-03-06T18:34:41.747Z,3.02
2023-03-06T18:37:08.251Z,3.23
2023-03-06T18:39:34.804Z,3.33
2023-03-06T18:42:01.414Z,3.49
2023-03-06T18:44:27.928Z,3.54
2023-03-06T18:46:54.439Z,3.65
2023-03-06T18:49:21.059Z,3.70
2023-03-06T18:51:50.076Z,3.75
2023-03-06T18:54:17.732Z,3.82
2023-03-06T18:56:44.658Z,3.87
2023-03-06T18:59:17.600Z,3.91
2023-03-06T19:01:46.508Z,3.92
2023-03-06T19:04:13.412Z,3.95
2023-03-06T19:06:40.281Z,3.97
2023-03-06T19:09:07.442Z,3.95
2023-03-06T19:11:34.201Z,3.98
2023-03-06T19:14:00.974Z,3.96
2023-03-06T19:16:29.160Z,3.97
2023-03-06T19:18:56.192Z,3.99
2023-03-06T19:21:24.499Z,3.99
2023-03-06T19:23:51.131Z,3.97
2023-03-06T19:26:21.428Z,3.97
2023-03-06T19:28:48.340Z,3.97
2023-03-06T19:31:26.947Z,3.92
2023-03-06T19:33:54.924Z,3.93
2023-03-06T19:36:27.448Z,3.93
2023-03-06T19:38:58.253Z,3.92
2023-03-06T19:41:25.601Z,3.94
2023-03-06T19:43:54.442Z,3.93
2023-03-06T19:46:21.937Z,3.94
2023-03-06T19:48:48.506Z,3.95
2023-03-06T19:51:15.109Z,3.96
2023-03-06T19:53:42.037Z,3.96
2023-03-06T19:56:20.996Z,4.00
2023-03-06T19:58:47.790Z,4.01
2023-03-06T20:01:17.745Z,4.07
2023-03-06T20:03:44.572Z,4.08
2023-03-06T20:06:17.450Z,4.07
2023-03-06T20:08:44.982Z,4.04
2023-03-06T20:11:16.530Z,3.98
2023-03-06T20:13:47.302Z,3.95
2023-03-06T20:16:14.766Z,3.91
2023-03-06T20:18:41.525Z,3.86
2023-03-06T20:21:08.108Z,3.81
2023-03-06T20:23:35.059Z,3.80
2023-03-06T20:26:06.459Z,3.77
2023-03-06T20:28:33.855Z,3.75
2023-03-06T20:31:06.522Z,3.72
2023-03-06T20:33:33.285Z,3.70
2023-03-06T20:35:59.844Z,3.69
2023-03-06T20:38:26.652Z,3.68
2023-03-06T20:40:57.816Z,3.65
2023-03-06T20:43:24.357Z,3.66
2023-03-06T20:45:57.935Z,3.65
2023-03-06T20:48:24.556Z,3.67
2023-03-06T20:51:05.692Z,3.70
2023-03-06T20:53:34.272Z,3.70
2023-03-06T20:56:01.221Z,3.73
2023-03-06T20:58:30.129Z,3.73
2023-03-06T21:00:57.132Z,3.85
2023-03-06T21:03:24.316Z,3.86
2023-03-06T21:05:50.901Z,3.87
2023-03-06T21:08:17.392Z,3.85
2023-03-06T21:10:47.242Z,3.82
2023-03-06T21:13:14.451Z,3.83
2023-03-06T21:15:42.367Z,3.82
2023-03-06T21:18:09.193Z,3.80
2023-03-06T21:20:38.419Z,3.78
2023-03-06T21:23:05.323Z,3.76
2023-03-06T21:25:32.000Z,3.73
2023-03-06T21:28:00.139Z,3.70
2023-03-06T21:30:27.778Z,3.71
2023-03-06T21:32:54.556Z,3.73
2023-03-06T21:35:21.625Z,3.76
2023-03-06T21:37:48.153Z,3.80
2023-03-06T21:40:15.353Z,3.80
2023-03-06T21:42:41.851Z,3.86
2023-03-06T21:45:08.943Z,3.84
2023-03-06T21:47:38.979Z,3.86
2023-03-06T21:50:07.359Z,3.92
2023-03-06T21:52:33.910Z,3.95
2023-03-06T21:55:00.553Z,3.97
2023-03-06T21:57:27.147Z,4.02
2023-03-06T21:59:53.699Z,4.04
2023-03-06T22:02:20.290Z,4.08
2023-03-06T22:04:51.234Z,4.10
2023-03-06T22:07:18.059Z,4.12
2023-03-06T22:09:44.701Z,4.13
2023-03-06T22:12:11.540Z,4.12
2023-03-06T22:14:38.131Z,4.11
2023-03-06T22:17:04.714Z,4.10
2023-03-06T22:19:31.211Z,4.10
2023-03-06T22:21:57.723Z,4.07
2023-03-06T22:24:24.254Z,4.07
2023-03-06T22:26:50.868Z,4.07
2023-03-06T22:29:17.344Z,4.11
2023-03-06T22:31:43.903Z,4.12
2023-03-06T22:34:10.548Z,4.15
2023-03-06T22:36:37.263Z,4.16
2023-03-06T22:39:04.441Z,4.15
2023-03-06T22:41:31.023Z,4.18
2023-03-06T22:43:58.918Z,4.23
2023-03-06T22:46:26.085Z,4.28
2023-03-06T22:48:52.654Z,4.31
2023-03-06T22:51:20.492Z,4.29
2023-03-06T22:53:47.784Z,4.29
2023-03-06T22:56:20.413Z,4.35
2023-03-06T22:58:47.422Z,4.37
2023-03-06T23:01:19.242Z,4.35
2023-03-06T23:03:47.757Z,4.37
2023-03-06T23:06:21.788Z,4.39
2023-03-06T23:08:51.223Z,4.41
2023-03-06T23:11:19.739Z,4.48
2023-03-06T23:13:46.416Z,4.48
2023-03-06T23:16:13.270Z,4.48
2023-03-06T23:18:40.596Z,4.53
2023-03-06T23:21:11.133Z,4.54
2023-03-06T23:23:38.204Z,4.49
2023-03-06T23:26:08.765Z,4.53
2023-03-06T23:28:35.301Z,4.56
2023-03-06T23:31:09.273Z,4.55
2023-03-06T23:33:36.898Z,4.57
2023-03-06T23:36:05.725Z,4.56
2023-03-06T23:38:32.658Z,4.55
2023-03-06T23:41:04.335Z,4.57
2023-03-06T23:43:31.771Z,4.56
2023-03-06T23:45:58.491Z,4.54
2023-03-06T23:48:27.790Z,4.56
2023-03-06T23:50:54.461Z,4.56
2023-03-06T23:53:21.628Z,4.58
2023-03-06T23:55:49.647Z,4.63
2023-03-06T23:58:17.679Z,4.65
